Grenfell, Canada
Current Conditions -  °F | °C
As of 3:09 PM on Thursday 18 Dec 2014 (Local Time) from CYQV Reporting Station
Light Snow Light Snow  
Wind Chill:   Ceiling: 900
Heat Index: 19°   Visibility: 9mi
Dew Point: 16°   Wind: 13mph
Humidity: 86%   Direction: 180°S
Pressure: 29.95"   Gusts: NA
Location:  50.42°N, 102.92°W
Report Text: CYQV 182109Z AUTO 18011KT 9SM -SN OVC009 M07/M09 A2995 RMK SLP179
Loading
Personal Weather Stations






























Interactive Weather Map New forecast layout! Learn more

10-Day Weather Forecast

Advertisements
Track Severe Weather on mobile